Time;durP1;ratioP1;P1;durP2;ratioP2;P2;SDS_P1;SDS_P2;PMS_P1;PMS_P2;Temp;Humidity;BMP_temperature;BMP_pressure;BME280_temperature;BME280_humidity;BME280_pressure;Samples;Min_cycle;Max_cycle;Signal;HPM_P1;HPM_P2
2022/08/11 00:02:22;;;;;;;3.28;1.70;;;;;;;19.47;58.52;101728.53;5048846;28;20065;-42
2022/08/11 00:04:50;;;;;;;3.88;1.85;;;;;;;19.46;58.59;101738.13;5053114;28;20052;-46
2022/08/11 00:07:18;;;;;;;2.88;1.75;;;;;;;19.47;58.86;101745.38;5029998;28;20479;-41
2022/08/11 00:09:46;;;;;;;2.67;1.65;;;;;;;19.42;58.79;101740.09;5043122;28;20487;-42
2022/08/11 00:12:15;;;;;;;4.22;2.20;;;;;;;19.40;58.91;101734.06;5049006;28;20399;-42
2022/08/11 00:14:43;;;;;;;3.67;1.88;;;;;;;19.36;59.08;101730.34;5048750;28;20072;-42
2022/08/11 00:17:13;;;;;;;3.72;2.20;;;;;;;19.32;59.32;101730.31;5030796;28;20471;-43
2022/08/11 00:19:44;;;;;;;3.42;1.95;;;;;;;19.26;59.28;101723.41;5048533;28;20057;-44
2022/08/11 00:22:32;;;;;;;4.43;2.05;;;;;;;19.21;59.51;101737.78;5049007;28;20056;-46
2022/08/11 00:25:08;;;;;;;6.22;2.40;;;;;;;19.17;59.70;101731.31;5048657;28;20446;-44
2022/08/11 00:27:38;;;;;;;6.30;2.50;;;;;;;19.16;59.68;101737.31;5031113;28;20073;-45
2022/08/11 00:30:07;;;;;;;3.45;2.25;;;;;;;19.15;59.67;101733.69;5048649;28;20052;-45
2022/08/11 00:32:39;;;;;;;3.85;2.53;;;;;;;19.12;59.65;101739.25;5049189;28;20052;-49
2022/08/11 00:35:13;;;;;;;5.43;2.33;;;;;;;19.11;59.64;101730.03;5046657;28;20136;-44
2022/08/11 00:38:01;;;;;;;6.20;2.67;;;;;;;19.10;59.80;101730.41;5048416;28;20049;-44
2022/08/11 00:40:38;;;;;;;4.72;2.30;;;;;;;19.07;59.90;101728.34;5029664;28;20453;-43
2022/08/11 00:43:18;;;;;;;4.00;2.25;;;;;;;19.00;60.03;101731.88;5048151;28;20063;-43
2022/08/11 00:46:17;;;;;;;4.20;2.08;;;;;;;18.94;60.14;101733.38;5030698;28;20469;-47
2022/08/11 00:48:58;;;;;;;4.78;2.20;;;;;;;18.90;60.55;101729.72;5048411;28;20088;-43
2022/08/11 00:51:43;;;;;;;2.58;2.03;;;;;;;18.87;60.55;101727.66;5048743;28;20510;-42
2022/08/11 00:55:02;;;;;;;4.03;2.20;;;;;;;18.82;60.69;101737.19;5053142;28;20055;-41
2022/08/11 00:57:58;;;;;;;4.93;2.55;;;;;;;18.77;60.86;101723.50;4982675;28;20037;-42
2022/08/11 01:00:32;;;;;;;5.72;2.78;;;;;;;18.76;61.03;101716.28;5052593;28;20053;-46
2022/08/11 01:03:23;;;;;;;5.53;1.98;;;;;;;18.74;61.14;101724.25;5052277;28;20060;-42
2022/08/11 01:06:21;;;;;;;3.78;2.30;;;;;;;18.70;61.33;101720.59;5033185;28;20137;-41
2022/08/11 01:09:04;;;;;;;6.15;2.70;;;;;;;18.62;61.39;101724.47;5051784;28;20499;-40
2022/08/11 01:11:53;;;;;;;3.13;2.17;;;;;;;18.59;61.50;101724.38;5054668;28;20049;-43
2022/08/11 01:14:40;;;;;;;3.55;2.35;;;;;;;18.57;61.62;101721.16;5072262;28;20659;-47
2022/08/11 01:17:25;;;;;;;3.67;2.22;;;;;;;18.58;61.78;101720.81;5072520;28;20386;-42
2022/08/11 01:20:07;;;;;;;2.72;1.92;;;;;;;18.55;61.97;101718.75;5072276;28;20124;-41
2022/08/11 01:23:35;;;;;;;3.10;2.30;;;;;;;18.53;61.85;101711.91;5071952;28;20048;-43
2022/08/11 01:26:30;;;;;;;3.00;1.77;;;;;;;18.52;61.89;101719.50;5072142;28;20052;-42
2022/08/11 01:29:06;;;;;;;4.45;2.67;;;;;;;18.47;62.06;101719.81;5071723;28;20127;-42
2022/08/11 01:32:00;;;;;;;4.60;2.13;;;;;;;18.43;62.40;101718.91;5071942;28;20397;-44
2022/08/11 01:34:26;;;;;;;4.30;2.33;;;;;;;18.40;62.51;101716.84;5055615;28;20072;-42
2022/08/11 01:36:53;;;;;;;2.75;2.00;;;;;;;18.37;62.51;101726.03;5052406;28;20083;-43
2022/08/11 01:39:40;;;;;;;3.03;2.20;;;;;;;18.32;62.73;101722.72;5051763;28;20541;-42
2022/08/11 01:45:54;;;;;;;5.30;2.30;;;;;;;18.29;62.39;101729.88;5051927;28;20082;-47
2022/08/11 01:48:36;;;;;;;2.90;2.00;;;;;;;18.27;62.48;101716.22;5051994;28;20150;-46
2022/08/11 01:51:12;;;;;;;;;;;;;;;18.24;62.17;101727.41;5052401;28;20136;-43
2022/08/11 01:53:48;;;;;;;3.95;2.28;;;;;;;18.19;62.51;101730.47;5045186;28;19924;-47
2022/08/11 01:56:32;;;;;;;6.40;2.38;;;;;;;18.15;62.74;101724.84;5046330;28;20047;-47
2022/08/11 01:59:33;;;;;;;5.10;2.20;;;;;;;18.15;62.86;101726.81;5021704;28;20057;-44
2022/08/11 02:02:44;;;;;;;2.70;2.35;;;;;;;18.10;63.08;101727.13;5012211;28;20068;-48
2022/08/11 02:05:36;;;;;;;8.40;2.53;;;;;;;18.09;63.25;101733.91;5041504;28;20037;-44
2022/08/11 02:08:09;;;;;;;3.55;2.35;;;;;;;18.06;63.11;101727.06;5051360;28;20477;-42
2022/08/11 02:13:52;;;;;;;;;;;;;;;17.98;63.02;101725.31;5051971;28;20120;-47
2022/08/11 02:16:57;;;;;;;4.55;2.90;;;;;;;17.94;63.31;101723.63;5051691;28;19925;-42
2022/08/11 02:25:46;;;;;;;5.15;2.25;;;;;;;17.89;63.93;101729.53;5031540;28;20437;-42
2022/08/11 02:28:15;;;;;;;3.92;2.03;;;;;;;17.87;63.84;101731.91;5031191;28;20046;-41
2022/08/11 02:34:43;;;;;;;4.13;2.60;;;;;;;17.84;63.92;101719.44;5040283;28;20041;-43
2022/08/11 02:37:31;;;;;;;6.95;2.65;;;;;;;17.82;64.00;101718.19;5052510;28;20460;-46
2022/08/11 02:40:02;;;;;;;5.68;2.70;;;;;;;17.74;64.21;101714.41;5050548;28;20033;-42
2022/08/11 02:42:40;;;;;;;2.38;2.17;;;;;;;17.74;64.34;101720.03;5050753;28;20055;-44
2022/08/11 02:45:29;;;;;;;3.38;2.25;;;;;;;17.74;64.22;101716.44;5050369;28;20041;-42
2022/08/11 02:51:28;;;;;;;7.80;3.95;;;;;;;17.73;64.40;101718.44;5050188;28;20076;-42
2022/08/11 02:54:10;;;;;;;5.90;3.03;;;;;;;17.68;64.67;101715.09;5050715;28;20053;-42
2022/08/11 02:57:05;;;;;;;4.97;3.30;;;;;;;17.63;64.76;101719.81;5050073;28;20055;-41
2022/08/11 02:59:53;;;;;;;3.78;2.30;;;;;;;17.61;64.65;101722.19;5050052;28;20076;-46
2022/08/11 03:02:39;;;;;;;8.57;3.00;;;;;;;17.60;64.65;101719.75;5124378;22;20063;-42
2022/08/11 03:05:19;;;;;;;5.00;2.92;;;;;;;17.60;64.67;101716.97;5018962;28;20041;-44
2022/08/11 03:08:06;;;;;;;5.85;3.33;;;;;;;17.58;64.69;101719.28;5030036;28;20049;-41
2022/08/11 03:17:16;;;;;;;5.53;2.50;;;;;;;17.50;64.90;101709.13;4968860;28;20046;-42
2022/08/11 03:19:59;;;;;;;6.82;3.25;;;;;;;17.46;65.06;101708.22;5026515;28;20046;-42
2022/08/11 03:22:36;;;;;;;6.18;3.17;;;;;;;17.41;65.37;101706.53;5029972;28;20502;-45
2022/08/11 03:25:34;;;;;;;5.35;3.30;;;;;;;17.40;65.36;101710.50;5029544;28;20049;-43
2022/08/11 03:28:08;;;;;;;5.60;3.35;;;;;;;17.42;65.23;101719.34;5030409;28;20046;-42
2022/08/11 03:30:41;;;;;;;7.70;3.33;;;;;;;17.42;65.23;101713.75;5029922;28;20514;-41
2022/08/11 03:36:45;;;;;;;4.88;3.05;;;;;;;17.33;65.46;101707.56;5029752;28;20041;-44
2022/08/11 03:39:45;;;;;;;4.47;3.08;;;;;;;17.29;65.40;101708.69;5021413;28;20037;-48
2022/08/11 03:42:44;;;;;;;9.13;3.00;;;;;;;17.23;65.80;101699.75;5029529;28;20441;-45
2022/08/11 03:45:22;;;;;;;6.93;2.97;;;;;;;17.22;65.77;101703.72;5030270;28;20045;-43
2022/08/11 03:48:14;;;;;;;4.72;3.05;;;;;;;17.24;65.80;101697.75;5029784;28;20403;-41
2022/08/11 03:50:47;;;;;;;6.93;3.15;;;;;;;17.19;65.81;101704.47;5029017;28;20037;-42
2022/08/11 03:53:32;;;;;;;4.65;3.08;;;;;;;17.18;65.75;101697.25;5029271;28;20450;-42
2022/08/11 03:56:23;;;;;;;4.03;3.22;;;;;;;17.12;65.98;101698.72;5029200;28;20053;-49
2022/08/11 03:59:33;;;;;;;4.30;2.95;;;;;;;17.13;65.87;101700.31;5029048;28;20053;-41
2022/08/11 04:02:21;;;;;;;6.60;3.83;;;;;;;17.13;65.70;101694.72;5019107;28;20055;-43
2022/08/11 04:05:10;;;;;;;6.40;3.95;;;;;;;17.13;65.86;101691.13;5057590;28;20063;-43
2022/08/11 04:07:55;;;;;;;5.38;4.22;;;;;;;17.11;65.96;101694.28;5068938;28;20045;-44
2022/08/11 04:10:45;;;;;;;6.43;3.95;;;;;;;17.08;66.17;101686.63;5069085;28;20378;-45
2022/08/11 04:13:11;;;;;;;5.57;3.72;;;;;;;17.03;66.28;101684.94;5051845;28;20064;-42
2022/08/11 04:16:03;;;;;;;5.75;3.45;;;;;;;16.99;66.42;101681.25;5037097;28;20057;-44
2022/08/11 04:18:43;;;;;;;5.53;3.53;;;;;;;16.97;66.35;101689.19;5043312;28;20520;-46
2022/08/11 04:21:47;;;;;;;8.30;3.92;;;;;;;16.95;66.48;101682.34;5039587;28;20414;-42
2022/08/11 04:24:46;;;;;;;8.57;4.25;;;;;;;16.96;66.33;101678.38;5033681;28;20396;-48
2022/08/11 04:27:53;;;;;;;9.15;4.53;;;;;;;16.94;66.34;101687.09;5034949;28;20498;-41
2022/08/11 04:30:44;;;;;;;8.43;4.85;;;;;;;17.03;66.13;101682.13;5057787;28;20490;-40
2022/08/11 04:33:30;;;;;;;6.57;3.85;;;;;;;16.97;66.06;101680.78;5068446;28;20048;-43
2022/08/11 04:37:30;;;;;;;7.47;4.18;;;;;;;16.93;66.27;101691.09;5068810;28;20513;-49
2022/08/11 04:39:33;;;;;;;5.93;4.00;;;;;;;16.89;66.25;101678.22;5060341;28;20131;-42
2022/08/11 04:45:21;;;;;;;6.15;3.80;;;;;;;16.81;66.45;101676.44;5068629;28;20127;-43
2022/08/11 05:03:14;;;;;;;6.45;3.60;;;;;;;16.68;66.79;101694.50;5068027;28;20082;-43
2022/08/11 05:05:59;;;;;;;10.15;4.57;;;;;;;16.66;67.16;101696.84;5068292;28;20076;-42
2022/08/11 05:08:58;;;;;;;14.80;4.45;;;;;;;16.66;67.22;101702.44;5068181;28;20057;-43
2022/08/11 05:11:43;;;;;;;5.22;3.78;;;;;;;16.62;67.33;101701.53;5034041;28;20061;-41
2022/08/11 05:34:52;;;;;;;6.95;4.45;;;;;;;16.43;67.83;101700.28;5068095;28;20048;-42
2022/08/11 05:37:22;;;;;;;8.50;4.20;;;;;;;16.44;67.92;101718.66;5068248;28;20051;-41
2022/08/11 05:57:22;;;;;;;8.68;4.00;;;;;;;16.66;68.24;101724.78;5071671;28;20049;-48
2022/08/11 06:00:10;;;;;;;6.65;4.25;;;;;;;16.71;68.02;101730.09;5071606;28;20036;-45
2022/08/11 06:02:50;;;;;;;7.10;4.07;;;;;;;16.72;68.34;101726.16;5072348;28;20086;-46
2022/08/11 06:05:17;;;;;;;7.72;4.53;;;;;;;16.77;68.19;101725.88;5071929;28;20056;-44
2022/08/11 06:07:47;;;;;;;5.75;3.60;;;;;;;16.79;68.25;101732.72;5071522;28;20076;-44
2022/08/11 06:10:26;;;;;;;6.65;4.18;;;;;;;16.85;68.43;101738.84;5071228;28;20083;-41
2022/08/11 06:12:54;;;;;;;7.75;4.50;;;;;;;16.92;68.41;101733.41;5071333;28;20054;-49
2022/08/11 06:15:24;;;;;;;8.55;3.97;;;;;;;17.01;68.23;101731.25;5071531;28;20056;-41
2022/08/11 06:17:52;;;;;;;6.97;3.70;;;;;;;17.08;67.94;101739.78;5071487;28;20050;-46
2022/08/11 06:20:21;;;;;;;8.18;4.72;;;;;;;17.14;67.91;101735.53;5071064;28;20052;-42
2022/08/11 06:22:57;;;;;;;7.63;5.10;;;;;;;17.20;67.64;101734.06;5071103;28;20520;-42
2022/08/11 06:25:35;;;;;;;7.53;4.07;;;;;;;17.29;67.59;101731.84;5071731;28;20383;-41
2022/08/11 06:28:04;;;;;;;8.20;4.78;;;;;;;17.34;67.40;101728.75;5070686;28;20042;-44
2022/08/11 06:30:34;;;;;;;8.48;4.40;;;;;;;17.42;67.32;101733.34;5036043;28;20099;-41
2022/08/11 06:33:05;;;;;;;7.70;4.97;;;;;;;17.45;67.28;101729.81;5059118;28;20055;-43
2022/08/11 06:35:47;;;;;;;8.38;4.20;;;;;;;17.48;67.34;101740.28;5036015;28;20049;-44
2022/08/11 06:38:39;;;;;;;7.55;4.28;;;;;;;17.54;67.28;101738.03;5039497;28;20094;-42
2022/08/11 06:41:29;;;;;;;6.90;4.07;;;;;;;17.59;67.25;101732.94;5050617;28;20127;-42
2022/08/11 06:44:12;;;;;;;7.47;3.60;;;;;;;17.68;66.86;101737.50;5075233;28;20482;-43
2022/08/11 06:46:42;;;;;;;13.02;4.15;;;;;;;17.72;66.81;101728.00;5070588;28;20047;-43
2022/08/11 06:52:05;;;;;;;7.32;3.72;;;;;;;17.87;66.23;101729.09;5070918;28;20048;-42
2022/08/11 06:54:56;;;;;;;6.97;4.00;;;;;;;17.91;66.05;101719.56;5070332;28;20051;-41
2022/08/11 07:00:27;;;;;;;6.50;3.45;;;;;;;18.06;65.54;101731.84;5080515;28;20401;-43
2022/08/11 07:03:07;;;;;;;4.57;3.38;;;;;;;18.14;65.48;101722.38;5056865;28;20091;-42
2022/08/11 07:05:46;;;;;;;6.55;3.60;;;;;;;18.19;65.41;101730.47;5070338;28;20044;-41
2022/08/11 07:17:13;;;;;;;7.63;3.45;;;;;;;18.42;64.67;101734.13;5069987;28;20075;-43
2022/08/11 07:31:13;;;;;;;9.60;3.75;;;;;;;18.74;63.90;101731.88;5069695;28;20055;-50
2022/08/11 07:33:45;;;;;;;6.60;3.40;;;;;;;18.80;63.83;101736.78;5069309;28;20066;-47
2022/08/11 07:36:36;;;;;;;7.72;3.22;;;;;;;18.85;63.75;101725.22;5063894;28;20132;-44
2022/08/11 07:39:09;;;;;;;7.45;3.65;;;;;;;18.95;64.00;101734.19;5069395;28;20040;-42
2022/08/11 07:41:37;;;;;;;4.55;3.20;;;;;;;19.05;63.88;101730.72;5062585;28;20033;-45
2022/08/11 07:44:08;;;;;;;5.13;3.05;;;;;;;19.14;63.55;101731.28;5069908;28;20588;-47
2022/08/11 07:52:26;;;;;;;3.72;2.75;;;;;;;19.46;63.39;101720.50;5069034;28;20048;-42
2022/08/11 07:54:54;;;;;;;4.25;2.88;;;;;;;19.57;63.49;101727.84;5069213;28;20086;-42
2022/08/11 08:20:43;;;;;;;5.40;1.83;;;;;;;21.93;61.97;101723.28;5068830;28;20045;-43
2022/08/11 08:23:11;;;;;;;7.97;2.15;;;;;;;22.51;60.10;101719.31;5068910;28;20047;-46
2022/08/11 08:25:40;;;;;;;3.88;1.98;;;;;;;23.26;57.70;101720.84;5068477;28;20049;-42
2022/08/11 08:28:10;;;;;;;5.93;2.38;;;;;;;24.05;55.48;101728.56;5050301;28;20044;-44
2022/08/11 08:30:46;;;;;;;5.20;2.40;;;;;;;25.02;53.24;101718.94;5068602;28;20049;-44
2022/08/11 08:33:17;;;;;;;4.22;2.00;;;;;;;26.02;49.78;101720.94;5068990;28;20090;-43
2022/08/11 08:35:46;;;;;;;8.75;2.78;;;;;;;27.01;47.04;101719.31;5059642;28;20380;-44
2022/08/11 08:38:22;;;;;;;6.25;1.90;;;;;;;27.98;44.74;101716.91;5068390;28;20181;-44
2022/08/11 08:40:52;;;;;;;6.88;2.15;;;;;;;28.83;42.79;101712.78;5059449;28;20118;-42
2022/08/11 08:43:23;;;;;;;5.07;2.28;;;;;;;29.45;40.96;101720.06;5048307;28;20046;-42
2022/08/11 08:45:54;;;;;;;5.65;2.05;;;;;;;30.03;39.70;101719.94;5054750;28;20044;-42
2022/08/11 08:48:24;;;;;;;3.13;2.38;;;;;;;30.62;38.34;101711.50;5068523;28;20048;-42
2022/08/11 08:53:51;;;;;;;3.88;2.13;;;;;;;31.56;36.46;101711.38;5055304;28;20043;-43
2022/08/11 08:56:27;;;;;;;4.47;2.40;;;;;;;31.87;35.31;101703.63;5044124;28;20044;-43
2022/08/11 08:58:58;;;;;;;8.52;2.47;;;;;;;32.10;34.50;101705.19;5042174;28;20073;-42
2022/08/11 09:01:32;;;;;;;5.87;1.70;;;;;;;32.32;33.82;101700.19;5046004;28;20052;-46
2022/08/11 09:03:59;;;;;;;4.55;2.10;;;;;;;32.46;33.43;101705.28;5035552;28;20045;-45
2022/08/11 09:06:41;;;;;;;5.22;2.08;;;;;;;32.74;32.77;101699.66;5079597;28;20084;-50
2022/08/11 09:09:11;;;;;;;2.58;1.48;;;;;;;32.94;32.36;101695.03;5075262;28;20143;-49
2022/08/11 09:11:52;;;;;;;;;;;;;;;32.91;33.97;101695.22;5068907;28;20575;-49
2022/08/11 09:17:20;;;;;;;5.93;1.80;;;;;;;33.48;32.10;101682.75;5072620;28;20513;-43
2022/08/11 09:19:50;;;;;;;7.03;2.65;;;;;;;33.71;30.93;101689.91;5072369;28;20044;-54
2022/08/11 09:27:55;;;;;;;5.15;1.40;;;;;;;33.95;29.89;101687.91;5075635;28;20048;-44
2022/08/11 09:30:27;;;;;;;4.38;1.55;;;;;;;33.95;29.16;101682.16;5072176;28;20040;-44
2022/08/11 09:32:56;;;;;;;3.40;1.50;;;;;;;34.11;28.83;101676.06;5071977;28;20127;-44
2022/08/11 09:35:29;;;;;;;2.67;1.88;;;;;;;34.19;28.62;101685.91;5071946;28;20043;-49
2022/08/11 09:40:46;;;;;;;4.35;1.50;;;;;;;34.02;28.42;101681.81;5071764;28;20044;-43
2022/08/11 09:46:10;;;;;;;6.85;1.40;;;;;;;34.20;28.46;101675.22;5071572;28;20131;-42
2022/08/11 09:48:42;;;;;;;5.93;1.48;;;;;;;34.50;27.70;101665.44;5071679;28;20053;-43
2022/08/11 09:51:12;;;;;;;3.75;1.30;;;;;;;34.61;27.79;101670.66;5071831;28;20048;-46
2022/08/11 09:53:43;;;;;;;6.00;1.13;;;;;;;34.75;26.84;101669.94;5071538;28;20048;-43
2022/08/11 09:59:19;;;;;;;7.57;1.55;;;;;;;34.80;26.45;101669.25;5070614;28;20051;-43
2022/08/11 10:01:49;;;;;;;2.33;1.30;;;;;;;34.84;25.99;101670.66;5071226;28;20175;-46
2022/08/11 10:04:21;;;;;;;2.50;1.13;;;;;;;34.81;26.12;101665.09;5071288;28;20421;-44
2022/08/11 10:07:03;;;;;;;1.45;0.90;;;;;;;34.72;24.85;101670.91;5071202;28;20132;-47
2022/08/11 10:09:52;;;;;;;2.72;0.80;;;;;;;34.57;24.98;101670.06;5071226;28;20139;-44
2022/08/11 10:12:36;;;;;;;5.38;1.50;;;;;;;34.67;25.50;101671.59;5070991;28;20063;-44
2022/08/11 10:20:49;;;;;;;3.95;1.85;;;;;;;34.68;28.00;101659.59;5071137;28;20135;-42
2022/08/11 10:34:59;;;;;;;5.47;2.10;;;;;;;33.69;29.81;101666.63;5069623;28;20069;-45
2022/08/11 10:37:33;;;;;;;5.32;1.60;;;;;;;33.51;29.79;101660.91;5070793;28;20047;-47
2022/08/11 10:40:22;;;;;;;3.42;1.88;;;;;;;33.34;30.05;101659.66;5070997;28;20033;-49
2022/08/11 10:43:05;;;;;;;6.18;1.95;;;;;;;32.97;29.79;101659.66;5070716;28;20435;-44
2022/08/11 10:48:24;;;;;;;4.47;1.30;;;;;;;32.57;30.20;101659.00;5070746;28;20083;-42
2022/08/11 10:59:16;;;;;;;4.40;1.80;;;;;;;31.29;31.38;101656.81;5069092;28;20435;-43
2022/08/11 11:01:44;;;;;;;5.05;1.70;;;;;;;30.91;31.33;101653.28;5070179;28;20440;-43
2022/08/11 11:04:11;;;;;;;2.17;1.10;;;;;;;30.53;32.13;101657.06;5070151;28;20546;-43
2022/08/11 11:07:03;;;;;;;3.90;1.17;;;;;;;30.12;32.56;101654.38;5070730;28;20071;-49
2022/08/11 11:09:31;;;;;;;3.65;1.50;;;;;;;29.82;33.36;101654.94;5067736;28;20740;-42
2022/08/11 11:18:24;;;;;;;4.10;1.00;;;;;;;28.78;33.68;101647.78;5044968;28;20140;-44
2022/08/11 11:20:56;;;;;;;2.35;1.23;;;;;;;28.70;34.37;101654.16;5028675;28;20199;-44
2022/08/11 11:23:27;;;;;;;4.22;1.00;;;;;;;28.64;34.62;101647.38;5077402;28;20046;-49
2022/08/11 11:26:20;;;;;;;1.88;1.23;;;;;;;28.58;34.05;101643.44;5071167;28;20055;-44
2022/08/11 11:29:24;;;;;;;2.90;0.90;;;;;;;28.39;34.18;101654.50;5069616;28;20478;-44
2022/08/11 11:32:17;;;;;;;3.60;1.40;;;;;;;28.06;33.92;101647.22;5056255;28;20211;-45
2022/08/11 11:34:59;;;;;;;1.83;1.27;;;;;;;27.73;34.59;101642.66;5069399;28;20047;-46
2022/08/11 11:37:31;;;;;;;2.42;0.90;;;;;;;27.56;34.53;101636.13;5050376;28;20056;-45
2022/08/11 11:39:59;;;;;;;2.65;0.73;;;;;;;27.45;33.97;101643.31;5082833;28;20136;-42
2022/08/11 11:42:28;;;;;;;2.30;1.17;;;;;;;27.34;34.94;101645.56;5075262;28;20581;-42
2022/08/11 11:44:56;;;;;;;3.63;0.93;;;;;;;27.30;34.57;101650.53;5069391;28;20140;-44
2022/08/11 11:47:29;;;;;;;4.28;1.73;;;;;;;27.29;35.25;101648.91;5069068;28;20036;-42
2022/08/11 11:49:56;;;;;;;2.75;0.77;;;;;;;27.33;35.12;101652.47;5069110;28;20495;-43
2022/08/11 11:52:23;;;;;;;2.97;0.70;;;;;;;27.28;35.29;101653.00;5069216;28;20147;-45
2022/08/11 11:54:55;;;;;;;1.77;0.70;;;;;;;27.18;35.55;101652.78;5069037;28;20094;-43
2022/08/11 12:03:12;;;;;;;1.73;0.63;;;;;;;27.27;35.53;101649.34;5068691;28;20135;-44
2022/08/11 12:05:42;;;;;;;6.20;1.10;;;;;;;27.30;35.49;101653.38;5069251;28;20461;-42
2022/08/11 12:08:18;;;;;;;4.32;0.75;;;;;;;27.31;35.92;101646.44;5069126;28;20060;-42
2022/08/11 12:14:02;;;;;;;1.20;0.68;;;;;;;27.25;35.48;101645.34;5068888;28;20132;-44
2022/08/11 12:16:43;;;;;;;2.28;0.70;;;;;;;27.26;35.11;101646.94;5069324;28;20124;-43
2022/08/11 12:19:16;;;;;;;2.13;0.60;;;;;;;27.20;34.93;101641.78;5051316;28;20135;-46
2022/08/11 12:27:21;;;;;;;2.15;1.00;;;;;;;27.63;34.53;101647.38;5069266;28;20091;-45
2022/08/11 12:29:56;;;;;;;1.65;0.93;;;;;;;27.71;34.39;101648.00;5069387;28;20067;-42
2022/08/11 12:32:27;;;;;;;3.15;0.65;;;;;;;27.87;34.51;101638.69;5069327;28;20559;-43
2022/08/11 12:34:56;;;;;;;1.80;0.60;;;;;;;28.02;34.28;101640.78;5048950;28;20084;-45
2022/08/11 12:37:48;;;;;;;2.10;0.60;;;;;;;28.09;34.20;101640.59;5068846;28;20133;-43
2022/08/11 12:46:28;;;;;;;10.82;1.08;;;;;;;28.14;34.75;101642.94;5068702;28;20045;-42
2022/08/11 12:52:00;;;;;;;4.05;0.90;;;;;;;28.19;35.10;101639.56;5068909;28;20160;-46
2022/08/11 12:54:57;;;;;;;1.33;0.70;;;;;;;28.12;35.29;101628.31;5057188;28;20084;-44
2022/08/11 13:05:54;;;;;;;2.00;1.02;;;;;;;28.12;35.04;101628.31;5050986;28;20040;-46
2022/08/11 13:08:23;;;;;;;1.08;0.75;;;;;;;28.25;34.27;101620.66;5068344;28;20504;-42
2022/08/11 13:13:42;;;;;;;2.15;0.65;;;;;;;28.38;31.96;101617.94;5068187;28;20091;-47
2022/08/11 13:17:19;;;;;;;4.65;0.70;;;;;;;28.35;31.69;101619.63;5068131;28;20037;-46
2022/08/11 13:19:20;;;;;;;2.78;0.82;;;;;;;28.38;32.04;101615.84;5068028;28;20036;-41
2022/08/11 13:21:51;;;;;;;0.85;0.70;;;;;;;28.49;30.80;101623.34;5067984;28;20403;-43
2022/08/11 13:24:22;;;;;;;1.73;0.60;;;;;;;28.50;31.06;101613.53;5068869;28;20143;-48
2022/08/11 13:26:50;;;;;;;2.08;1.00;;;;;;;28.59;31.05;101608.81;5063162;28;20099;-43
2022/08/11 13:29:26;;;;;;;1.17;0.60;;;;;;;28.69;30.82;101609.78;5041758;28;20048;-42
2022/08/11 13:31:57;;;;;;;0.52;0.52;;;;;;;28.85;30.58;101606.88;5041284;28;20477;-46
2022/08/11 13:34:25;;;;;;;1.55;0.80;;;;;;;28.95;30.34;101611.47;5043496;28;20127;-43
2022/08/11 13:36:55;;;;;;;5.32;0.45;;;;;;;29.05;29.67;101604.66;5054286;28;20127;-47
2022/08/11 13:39:25;;;;;;;2.55;0.70;;;;;;;29.15;29.39;101612.09;5080182;28;20040;-43
2022/08/11 13:41:55;;;;;;;1.08;0.98;;;;;;;29.24;29.38;101615.13;5050683;28;20051;-42
2022/08/11 13:44:28;;;;;;;2.17;0.52;;;;;;;29.25;28.83;101607.38;5056182;28;20056;-45
2022/08/11 13:47:02;;;;;;;1.63;0.80;;;;;;;29.30;29.14;101609.66;5067745;28;20043;-43
2022/08/11 13:49:32;;;;;;;2.22;0.50;;;;;;;29.30;28.93;101603.97;5068001;28;20045;-42
2022/08/11 13:51:59;;;;;;;0.98;0.50;;;;;;;29.35;28.22;101612.75;5067444;28;20056;-45
2022/08/11 13:54:39;;;;;;;1.88;0.40;;;;;;;29.49;28.51;101606.59;5071060;28;20401;-47
2022/08/11 13:57:11;;;;;;;0.50;0.40;;;;;;;29.60;28.29;101599.78;5079423;28;20135;-43
2022/08/11 14:00:08;;;;;;;;;;;;;;;29.82;28.78;101595.81;5070683;28;20044;-43
2022/08/11 14:02:55;;;;;;;4.10;0.90;;;;;;;29.95;27.98;101592.94;5071185;28;19973;-42
2022/08/11 14:05:32;;;;;;;2.17;1.10;;;;;;;30.18;28.66;101590.47;5071233;28;20097;-41
2022/08/11 14:08:02;;;;;;;5.03;0.77;;;;;;;30.38;29.55;101592.31;5053388;28;20056;-42
2022/08/11 14:10:32;;;;;;;2.95;0.80;;;;;;;30.52;30.61;101592.63;5070951;28;20049;-46
2022/08/11 14:15:52;;;;;;;;;;;;;;;30.52;31.48;101586.91;5067291;28;20044;-43
2022/08/11 14:18:27;;;;;;;2.63;0.88;;;;;;;30.58;32.11;101581.41;5071112;28;19924;-42
2022/08/11 14:23:48;;;;;;;3.55;0.82;;;;;;;30.80;31.58;101584.25;5071072;28;20505;-45
2022/08/11 14:26:25;;;;;;;1.23;0.80;;;;;;;30.85;31.00;101587.31;5070945;28;20036;-42
2022/08/11 14:28:57;;;;;;;10.60;2.13;;;;;;;30.80;31.48;101578.53;5071167;28;20039;-46
2022/08/11 14:31:27;;;;;;;2.15;0.80;;;;;;;30.84;31.30;101587.78;5070826;28;20037;-44
2022/08/11 14:33:56;;;;;;;3.42;0.57;;;;;;;30.98;31.22;101581.56;5070547;28;20086;-43
2022/08/11 14:36:39;;;;;;;0.80;0.50;;;;;;;31.09;31.23;101587.66;5070833;28;20037;-41
2022/08/11 14:39:11;;;;;;;4.95;0.63;;;;;;;31.14;31.29;101576.41;5070741;28;20498;-43
2022/08/11 14:47:30;;;;;;;3.80;0.93;;;;;;;31.23;31.06;101573.63;5070999;28;20090;-43
2022/08/11 14:49:59;;;;;;;1.00;0.60;;;;;;;31.20;30.67;101570.88;5070589;28;20139;-43
2022/08/11 14:52:46;;;;;;;6.82;1.10;;;;;;;31.16;30.39;101568.16;5070377;28;20148;-44
2022/08/11 14:58:01;;;;;;;1.52;0.55;;;;;;;31.37;29.68;101566.53;5070287;28;20064;-42
2022/08/11 15:00:28;;;;;;;2.22;0.50;;;;;;;31.52;29.86;101561.88;5070140;28;20076;-41
2022/08/11 15:03:09;;;;;;;2.65;0.85;;;;;;;31.62;29.38;101572.09;5069904;28;20075;-43
2022/08/11 15:05:40;;;;;;;1.13;0.70;;;;;;;31.78;29.01;101565.31;5070720;28;20041;-47
2022/08/11 15:14:02;;;;;;;2.13;0.77;;;;;;;31.74;28.18;101568.34;5069984;28;20011;-50
2022/08/11 15:19:22;;;;;;;1.73;0.80;;;;;;;32.00;29.33;101576.69;5069893;28;20082;-43
2022/08/11 15:24:36;;;;;;;1.02;0.57;;;;;;;31.98;29.27;101564.91;5051672;28;20045;-42
2022/08/11 15:38:42;;;;;;;0.93;0.40;;;;;;;31.64;29.77;101558.09;5057279;28;20086;-46
2022/08/11 15:47:13;;;;;;;0.77;0.40;;;;;;;31.69;28.30;101554.59;5042703;28;20037;-49
2022/08/11 15:49:43;;;;;;;0.65;0.43;;;;;;;31.63;28.51;101552.84;5039515;28;20157;-46
2022/08/11 15:52:33;;;;;;;1.15;0.57;;;;;;;31.78;28.97;101551.78;5047504;28;20134;-44
2022/08/11 15:55:06;;;;;;;1.42;0.50;;;;;;;31.84;28.17;101547.03;5044722;28;20071;-42
2022/08/11 16:06:15;;;;;;;2.00;0.90;;;;;;;31.63;27.54;101544.25;5068989;28;20039;-43
2022/08/11 16:08:43;;;;;;;6.20;1.67;;;;;;;31.55;27.97;101538.03;5051435;28;20048;-43
2022/08/11 16:11:12;;;;;;;2.97;1.40;;;;;;;31.60;27.48;101542.34;5068956;28;20131;-42
2022/08/11 16:16:14;;;;;;;1.88;0.82;;;;;;;31.52;28.16;101544.69;5071209;28;20139;-41
2022/08/11 16:18:55;;;;;;;1.63;0.63;;;;;;;31.59;28.38;101547.25;5068974;28;20143;-45
2022/08/11 16:21:34;;;;;;;1.58;0.55;;;;;;;31.83;28.67;101551.16;5068906;28;20123;-41
2022/08/11 16:24:08;;;;;;;0.85;0.40;;;;;;;31.95;28.07;101546.59;5068715;28;20395;-44
2022/08/11 16:26:57;;;;;;;0.65;0.50;;;;;;;32.01;28.06;101558.25;5057276;28;20390;-50
2022/08/11 16:29:42;;;;;;;1.77;0.60;;;;;;;32.13;28.22;101549.50;5069347;28;20490;-45
2022/08/11 16:32:19;;;;;;;0.90;0.40;;;;;;;32.15;28.06;101546.16;5068937;28;20080;-42
2022/08/11 16:40:25;;;;;;;2.40;0.70;;;;;;;31.84;28.12;101544.16;5056169;28;20045;-45
2022/08/11 16:48:31;;;;;;;0.40;0.40;;;;;;;31.94;27.99;101542.13;5069077;28;20131;-47
2022/08/11 16:51:06;;;;;;;1.42;0.30;;;;;;;31.97;28.04;101540.38;5047485;28;20056;-46
2022/08/11 16:53:33;;;;;;;1.90;0.70;;;;;;;32.06;27.85;101544.09;5068438;28;20059;-46
2022/08/11 16:56:24;;;;;;;0.45;0.40;;;;;;;32.08;27.28;101541.53;5068572;28;20049;-43
2022/08/11 17:01:44;;;;;;;2.03;0.90;;;;;;;31.99;28.08;101546.41;5068613;28;20086;-41
2022/08/11 17:13:39;;;;;;;1.02;0.60;;;;;;;31.47;27.86;101531.00;5056474;28;20080;-43
2022/08/11 17:16:13;;;;;;;1.95;0.52;;;;;;;31.49;27.98;101539.91;5050295;28;20557;-42
2022/08/11 17:19:05;;;;;;;0.73;0.40;;;;;;;31.51;27.71;101537.38;5068448;28;20057;-40
2022/08/11 17:23:45;;;;;;;0.40;0.40;;;;;;;31.55;27.43;101532.31;5068698;28;20135;-42
2022/08/11 17:24:26;;;;;;;1.00;0.47;;;;;;;31.53;27.24;101534.84;5067895;28;20041;-43
2022/08/11 17:26:57;;;;;;;0.82;0.50;;;;;;;31.53;27.25;101534.03;5068128;28;20076;-42